Terminal Aerodrome Forecast
Issued by NWS Memphis, TN

Home | Current Version | Previous Version | Text Only | Print | Product List | Glossary On
Versions: 1 2 3 4 5 6 7 8 9 10 11 12 13 14 15 16
000
FTUS44 KMEG 241120
TAFJBR
TAF
KJBR 241120Z 2412/2512 28015G23KT P6SM SCT023 BKN035 OVC060
     FM241800 25015G25KT P6SM SCT250
     FM250000 25006KT P6SM SKC=

USA.gov is the U.S. government's official web portal to all federal, state and local government web resources and services.